createdAt,value
2019-04-23T03:02:07.697Z,5.37
2019-04-23T03:07:03.202Z,5.03
2019-04-23T03:09:36.673Z,4.42
2019-04-23T03:12:06.353Z,4.42
2019-04-23T03:14:34.940Z,4.72
2019-04-23T03:30:06.110Z,3.92
2019-04-23T03:40:02.116Z,3.90
2019-04-23T03:42:38.666Z,4.12
2019-04-23T03:45:16.667Z,4.45
2019-04-23T03:47:32.004Z,4.30
2019-04-23T03:55:12.317Z,5.05
2019-04-23T03:57:38.402Z,4.17
2019-04-23T04:00:24.844Z,4.50
2019-04-23T04:02:53.704Z,4.85
2019-04-23T04:05:17.315Z,4.75
2019-04-23T04:08:00.745Z,4.90
2019-04-23T04:12:39.887Z,4.90
2019-04-23T04:15:31.385Z,4.83
2019-04-23T04:17:55.634Z,4.90
2019-04-23T04:20:25.041Z,4.72
2019-04-23T04:25:26.166Z,4.70
2019-04-23T04:30:29.589Z,4.92
2019-04-23T04:33:19.497Z,4.80
2019-04-23T04:35:29.033Z,4.90
2019-04-23T04:43:08.507Z,5.15
2019-04-23T04:47:55.655Z,4.92
2019-04-23T04:50:35.231Z,4.72
2019-04-23T04:55:37.558Z,5.03
2019-04-23T05:00:56.688Z,4.83
2019-04-23T05:03:22.209Z,5.03
2019-04-23T05:08:17.318Z,5.85
2019-04-23T05:13:33.888Z,5.25
2019-04-23T05:15:45.151Z,5.15
2019-04-23T05:18:24.094Z,5.28
2019-04-23T05:20:58.054Z,5.10
2019-04-23T05:23:52.424Z,4.72
2019-04-23T05:26:13.552Z,5.25
2019-04-23T05:28:54.371Z,5.53
2019-04-23T05:31:17.235Z,5.58
2019-04-23T05:33:46.345Z,5.12
2019-04-23T05:38:52.239Z,5.47
2019-04-23T05:43:46.638Z,5.00
2019-04-23T05:48:57.954Z,5.58
2019-04-23T05:53:51.422Z,5.47
2019-04-23T05:56:24.277Z,5.67
2019-04-23T05:58:58.240Z,5.70
2019-04-23T06:04:12.938Z,5.95
2019-04-23T06:06:37.873Z,5.78
2019-04-23T06:08:59.757Z,5.50
2019-04-23T06:14:05.281Z,5.00
2019-04-23T06:16:35.606Z,5.60
2019-04-23T06:19:08.048Z,6.25
2019-04-23T06:21:47.480Z,6.42
2019-04-23T06:24:16.813Z,6.28
2019-04-23T06:26:49.335Z,5.95
2019-04-23T06:29:19.397Z,5.95
2019-04-23T06:31:45.987Z,5.90
2019-04-23T06:34:20.195Z,6.12
2019-04-23T06:36:45.526Z,5.58
2019-04-23T06:39:15.942Z,5.95
2019-04-23T06:41:51.622Z,5.50
2019-04-23T06:49:26.421Z,6.50
2019-04-23T06:52:02.684Z,5.30
2019-04-23T06:54:27.883Z,5.70
2019-04-23T06:57:14.934Z,5.62
2019-04-23T06:59:27.362Z,5.85
2019-04-23T07:02:11.883Z,5.85
2019-04-23T07:07:29.724Z,5.37
2019-04-23T07:09:20.725Z,5.53
2019-04-23T07:12:05.355Z,5.33
2019-04-23T07:14:43.573Z,5.12
2019-04-23T07:17:03.870Z,5.20
2019-04-23T07:19:35.486Z,5.55
2019-04-23T07:22:14.824Z,5.22
2019-04-23T07:24:42.051Z,5.50
2019-04-23T07:27:11.942Z,5.58
2019-04-23T07:29:43.406Z,5.40
2019-04-23T07:32:13.105Z,4.95
2019-04-23T07:34:51.193Z,5.25
2019-04-23T07:37:16.087Z,5.50
2019-04-23T07:40:21.678Z,5.70
2019-04-23T07:42:37.168Z,5.37
2019-04-23T07:45:14.249Z,5.33
2019-04-23T07:48:06.801Z,5.15
2019-04-23T07:53:13.152Z,4.55
2019-04-23T07:56:00.199Z,5.60
2019-04-23T07:58:14.319Z,5.15
2019-04-23T08:03:19.087Z,5.30
2019-04-23T08:05:39.639Z,5.30
2019-04-23T08:08:11.701Z,5.12
2019-04-23T08:11:03.064Z,5.20
2019-04-23T08:13:30.951Z,5.35
2019-04-23T08:16:02.790Z,5.03
2019-04-23T08:18:29.675Z,4.87
2019-04-23T08:20:54.192Z,4.45
2019-04-23T08:23:34.510Z,4.87
2019-04-23T08:26:32.853Z,4.95
2019-04-23T08:29:01.059Z,4.92
2019-04-23T08:31:27.047Z,5.00
2019-04-23T08:34:03.505Z,4.80
2019-04-23T08:38:50.838Z,4.28
2019-04-23T08:41:32.158Z,4.65
2019-04-23T08:44:21.598Z,4.60
2019-04-23T08:46:57.062Z,4.70
2019-04-23T08:49:22.668Z,4.55
2019-04-23T08:54:37.017Z,4.47
2019-04-23T08:56:58.606Z,5.10
2019-04-23T08:59:37.210Z,4.83
2019-04-23T09:02:10.472Z,4.85
2019-04-23T09:04:30.884Z,4.80
2019-04-23T09:07:04.063Z,4.83
2019-04-23T09:09:39.760Z,5.22
2019-04-23T09:11:59.802Z,5.03
2019-04-23T09:14:31.871Z,4.28
2019-04-23T09:17:07.082Z,4.80
2019-04-23T09:19:44.189Z,4.70
2019-04-23T09:22:08.681Z,4.62
2019-04-23T09:24:34.327Z,4.50
2019-04-23T09:27:16.204Z,5.12
2019-04-23T09:29:49.656Z,5.00
2019-04-23T09:37:43.149Z,4.83
2019-04-23T09:40:18.842Z,4.72
2019-04-23T09:43:00.496Z,5.15
2019-04-23T09:45:56.292Z,4.67
2019-04-23T09:55:40.311Z,4.00
2019-04-23T10:03:05.211Z,4.80
2019-04-23T10:05:35.306Z,4.70
2019-04-23T10:08:03.064Z,4.95
2019-04-23T10:10:26.111Z,5.20
2019-04-23T10:12:55.742Z,5.65
2019-04-23T10:15:32.467Z,5.75
2019-04-23T10:17:58.105Z,5.30
2019-04-23T10:20:28.951Z,4.97
2019-04-23T10:23:00.026Z,4.60
2019-04-23T10:25:30.175Z,4.90
2019-04-23T10:28:04.957Z,4.70
2019-04-23T10:30:31.196Z,4.62
2019-04-23T10:33:01.390Z,4.50
2019-04-23T10:35:41.445Z,4.90
2019-04-23T10:38:07.927Z,4.58
2019-04-23T10:40:37.752Z,5.10
2019-04-23T10:43:05.414Z,4.83
2019-04-23T10:45:53.989Z,4.47
2019-04-23T10:49:12.904Z,4.65
2019-04-23T10:51:28.707Z,4.83
2019-04-23T10:54:07.360Z,4.50
2019-04-23T10:56:37.707Z,5.22
2019-04-23T10:59:04.775Z,4.70
2019-04-23T11:01:41.377Z,4.53
2019-04-23T11:04:21.470Z,4.90
2019-04-23T11:09:29.305Z,4.67
2019-04-23T11:11:53.858Z,4.80
2019-04-23T11:14:25.447Z,5.20
2019-04-23T11:19:25.121Z,4.62
2019-04-23T11:32:29.301Z,4.12
2019-04-23T11:34:48.066Z,5.28
2019-04-23T11:39:39.611Z,4.80
2019-04-23T11:42:08.627Z,4.60
2019-04-23T11:44:47.205Z,4.80
2019-04-23T11:54:35.948Z,4.95
2019-04-23T11:59:59.516Z,4.62
2019-04-23T12:02:12.053Z,4.70
2019-04-23T12:04:57.350Z,4.58
2019-04-23T12:07:32.761Z,4.80
2019-04-23T12:12:32.802Z,4.62
2019-04-23T12:15:07.369Z,4.22
2019-04-23T12:17:47.163Z,4.20
2019-04-23T12:20:26.745Z,4.35
2019-04-23T12:23:01.174Z,4.47
2019-04-23T12:30:25.088Z,4.30
2019-04-23T12:37:55.157Z,4.55
2019-04-23T12:40:24.952Z,4.85
2019-04-23T12:50:46.845Z,4.35
2019-04-23T12:53:29.397Z,4.97
2019-04-23T12:55:36.257Z,4.42
2019-04-23T12:58:15.725Z,4.95
2019-04-23T13:00:36.972Z,4.78
2019-04-23T13:03:10.423Z,4.10
2019-04-23T13:05:32.777Z,4.62
2019-04-23T13:11:01.696Z,4.50
2019-04-23T13:13:25.595Z,5.00
2019-04-23T13:15:48.865Z,5.50
2019-04-23T13:18:17.630Z,5.40
2019-04-23T13:20:46.795Z,5.20
2019-04-23T13:23:25.577Z,4.37
2019-04-23T13:26:00.926Z,5.20
2019-04-23T13:31:12.517Z,4.87
2019-04-23T13:41:19.170Z,4.80
2019-04-23T13:43:47.920Z,5.00
2019-04-23T13:48:41.708Z,4.70
2019-04-23T13:51:21.229Z,4.78
2019-04-23T13:54:01.612Z,5.05
2019-04-23T13:56:25.262Z,5.12
2019-04-23T13:58:51.799Z,5.25
2019-04-23T14:01:28.757Z,5.42
2019-04-23T14:04:11.806Z,5.05
2019-04-23T14:09:14.410Z,4.95
2019-04-23T14:14:08.776Z,4.72
2019-04-23T14:21:47.827Z,4.70
2019-04-23T14:29:13.108Z,5.20
2019-04-23T14:31:37.063Z,5.15
2019-04-23T14:34:11.548Z,4.83
2019-04-23T14:39:10.146Z,5.20
2019-04-23T14:42:01.135Z,4.97
2019-04-23T14:49:25.784Z,5.17
2019-04-23T14:52:02.690Z,5.05
2019-04-23T14:55:06.393Z,5.05
2019-04-23T14:57:09.897Z,5.15
2019-04-23T14:59:24.455Z,5.22
2019-04-23T15:02:05.275Z,4.97
2019-04-23T15:04:47.912Z,5.17
2019-04-23T15:07:16.977Z,4.97
2019-04-23T15:12:17.340Z,4.70
2019-04-23T15:17:13.019Z,4.58
2019-04-23T15:22:20.158Z,4.80
2019-04-23T15:25:03.249Z,5.00
2019-04-23T15:29:42.445Z,4.65
2019-04-23T15:34:57.454Z,4.60
2019-04-23T15:40:08.233Z,4.50
2019-04-23T15:42:25.382Z,5.20
2019-04-23T15:44:55.241Z,4.87
2019-04-23T15:47:29.605Z,4.80
2019-04-23T15:50:02.812Z,5.22
2019-04-23T15:52:32.652Z,4.78
2019-04-23T15:57:45.083Z,5.33
2019-04-23T15:59:58.802Z,5.67
2019-04-23T16:02:03.418Z,5.10
2019-04-23T16:04:33.728Z,4.85
2019-04-23T16:07:04.448Z,4.35
2019-04-23T16:10:09.452Z,4.62
2019-04-23T16:12:35.984Z,4.75
2019-04-23T16:17:37.118Z,4.60
2019-04-23T16:20:25.519Z,4.97
2019-04-23T16:22:39.444Z,4.80
2019-04-23T16:25:13.367Z,5.37
2019-04-23T16:27:52.568Z,5.28
2019-04-23T16:33:03.706Z,5.15
2019-04-23T16:35:36.906Z,5.00
2019-04-23T16:38:24.892Z,5.47
2019-04-23T16:40:39.448Z,5.03
2019-04-23T16:43:08.684Z,6.10
2019-04-23T16:48:15.787Z,5.37
2019-04-23T16:50:56.289Z,5.45
2019-04-23T16:53:16.126Z,4.92
2019-04-23T16:58:23.294Z,5.50
2019-04-23T17:01:05.817Z,5.70
2019-04-23T17:03:21.083Z,5.67
2019-04-23T17:05:53.723Z,5.67
2019-04-23T17:10:51.542Z,5.22
2019-04-23T17:13:20.125Z,5.47
2019-04-23T17:18:29.834Z,6.00
2019-04-23T17:23:38.867Z,5.05
2019-04-23T17:31:18.993Z,6.28
2019-04-23T17:33:34.685Z,6.15
2019-04-23T17:41:40.311Z,5.70
2019-04-23T17:44:21.321Z,5.75
2019-04-23T17:49:14.117Z,5.90
2019-04-23T17:51:34.413Z,5.80
2019-04-23T17:54:17.846Z,6.33
2019-04-23T17:59:20.494Z,5.95
2019-04-23T18:01:54.392Z,5.47
2019-04-23T18:04:36.631Z,5.55
2019-04-23T18:06:51.045Z,5.72
2019-04-23T18:09:24.361Z,5.42
2019-04-23T18:11:56.182Z,5.50
2019-04-23T18:14:11.455Z,5.60
2019-04-23T18:19:16.783Z,5.70
2019-04-23T18:22:18.268Z,6.10
2019-04-23T18:25:06.328Z,6.53
2019-04-23T18:27:30.967Z,6.00
2019-04-23T18:32:43.402Z,5.53
2019-04-23T18:35:33.780Z,6.45
2019-04-23T18:37:43.688Z,6.60
2019-04-23T18:40:05.158Z,6.58
2019-04-23T18:42:45.140Z,5.90
2019-04-23T18:45:24.466Z,6.20
2019-04-23T18:48:03.048Z,6.50
2019-04-23T18:50:26.842Z,6.60
2019-04-23T18:52:58.427Z,6.60
2019-04-23T18:55:29.240Z,6.08
2019-04-23T18:57:50.459Z,6.35
2019-04-23T19:00:26.398Z,6.55
2019-04-23T19:03:11.699Z,6.95
2019-04-23T19:05:52.598Z,6.35
2019-04-23T19:08:42.572Z,6.55
2019-04-23T19:10:50.984Z,6.72
2019-04-23T19:15:45.850Z,6.75
2019-04-23T19:18:38.286Z,7.72
2019-04-23T19:31:22.106Z,7.95
2019-04-23T19:34:00.264Z,7.08
2019-04-23T19:36:17.104Z,7.55
2019-04-23T19:38:57.966Z,8.03
2019-04-23T19:41:19.563Z,7.50
2019-04-23T19:43:55.594Z,9.15
2019-04-23T19:46:34.412Z,9.23
2019-04-23T19:48:57.803Z,9.10
2019-04-23T19:51:25.069Z,9.35
2019-04-23T19:58:59.682Z,10.78
2019-04-23T20:01:33.945Z,10.85
2019-04-23T20:03:56.278Z,11.35
2019-04-23T20:07:07.505Z,10.72
2019-04-23T20:09:16.272Z,10.50
2019-04-23T20:11:42.569Z,11.45
2019-04-23T20:14:06.099Z,10.10
2019-04-23T20:16:59.803Z,11.08
2019-04-23T20:19:16.404Z,10.48
2019-04-23T20:26:59.265Z,9.73
2019-04-23T20:29:45.403Z,9.65
2019-04-23T20:32:04.359Z,9.03
2019-04-23T20:36:57.856Z,9.98
2019-04-23T20:39:45.487Z,9.03
2019-04-23T20:44:47.493Z,9.70
2019-04-23T20:47:11.473Z,9.60
2019-04-23T20:49:47.158Z,9.43
2019-04-23T20:52:13.772Z,8.93
2019-04-23T20:54:56.545Z,9.03
2019-04-23T21:05:09.899Z,7.85
2019-04-23T21:12:57.942Z,8.95
2019-04-23T21:15:20.236Z,8.10
2019-04-23T21:22:55.898Z,7.40
2019-04-23T21:25:22.217Z,6.95
2019-04-23T21:28:08.617Z,8.23
2019-04-23T21:33:15.921Z,7.47
2019-04-23T21:39:04.209Z,6.92
2019-04-23T21:41:29.196Z,6.83
2019-04-23T21:44:08.613Z,7.10
2019-04-23T21:46:48.294Z,6.17
2019-04-23T21:51:46.360Z,7.72
2019-04-23T21:53:55.394Z,6.97
2019-04-23T21:59:06.004Z,5.85
2019-04-23T22:04:17.625Z,7.10
2019-04-23T22:06:43.417Z,6.47
2019-04-23T22:09:16.082Z,5.92
2019-04-23T22:14:26.994Z,6.15
2019-04-23T22:16:52.054Z,5.85
2019-04-23T22:19:15.099Z,5.90
2019-04-23T22:24:25.554Z,5.05
2019-04-23T22:29:21.064Z,6.42
2019-04-23T22:31:47.467Z,6.47
2019-04-23T22:34:23.600Z,5.83
2019-04-23T22:36:57.998Z,6.40
2019-04-23T22:44:51.273Z,5.87
2019-04-23T22:49:41.785Z,5.87
2019-04-23T22:52:06.620Z,5.42
2019-04-23T22:54:32.248Z,6.00
2019-04-23T22:56:57.900Z,5.90
2019-04-23T22:59:51.373Z,5.65
2019-04-23T23:02:08.909Z,5.97
2019-04-23T23:04:51.579Z,6.33
2019-04-23T23:07:07.442Z,5.15
2019-04-23T23:12:14.353Z,5.78
2019-04-23T23:17:24.730Z,5.97
2019-04-23T23:20:01.729Z,5.72
2019-04-23T23:22:18.463Z,5.35
2019-04-23T23:24:56.431Z,5.12
2019-04-23T23:27:23.707Z,5.50
2019-04-23T23:30:06.395Z,5.53
2019-04-23T23:32:23.009Z,4.72
2019-04-23T23:35:12.921Z,5.10
2019-04-23T23:37:24.311Z,5.35
2019-04-23T23:40:12.330Z,5.03
2019-04-23T23:42:22.187Z,5.53
2019-04-23T23:45:01.970Z,4.92
2019-04-23T23:47:29.824Z,4.80
2019-04-23T23:50:16.236Z,5.33
2019-04-23T23:52:42.854Z,4.78
2019-04-23T23:55:08.336Z,4.75
2019-04-23T23:57:32.236Z,4.72
